Time;durP1;ratioP1;P1;durP2;ratioP2;P2;SDS_P1;SDS_P2;PMS_P1;PMS_P2;Temp;Humidity;BMP_temperature;BMP_pressure;BME280_temperature;BME280_humidity;BME280_pressure;Samples;Min_cycle;Max_cycle;Signal;HPM_P1;HPM_P2
2022/01/16 00:04:42;;;;;;;26.37;7.17;;;;;;;;;;10408180;28;20030;-78
2022/01/16 00:09:46;;;;;;;17.63;5.40;;;;;;;;;;10385444;28;20107;-80
2022/01/16 00:14:50;;;;;;;27.40;7.77;;;;;;;;;;10380531;28;20140;-80
2022/01/16 00:19:53;;;;;;;9.30;2.63;;;;;;;;;;10399220;28;20109;-80
2022/01/16 00:24:59;;;;;;;18.87;4.60;;;;;;;;;;10384528;28;20696;-81
2022/01/16 00:30:01;;;;;;;24.03;7.27;;;;;;;;;;10401326;28;20514;-79
2022/01/16 00:35:05;;;;;;;29.23;7.93;;;;;;;;;;10401821;28;20523;-79
2022/01/16 00:40:10;;;;;;;26.25;7.85;;;;;;;;;;10385913;28;20073;-80
2022/01/16 00:45:13;;;;;;;22.73;7.40;;;;;;;;;;10399261;28;20758;-79
2022/01/16 00:50:16;;;;;;;20.77;6.20;;;;;;;;;;10399189;28;20340;-80
2022/01/16 00:55:20;;;;;;;24.50;8.63;;;;;;;;;;10387347;28;20405;-79
2022/01/16 01:00:23;;;;;;;20.57;4.90;;;;;;;;;;10404631;28;20040;-80
2022/01/16 01:05:26;;;;;;;26.50;6.23;;;;;;;;;;10402744;28;20037;-80
2022/01/16 01:10:34;;;;;;;27.00;6.77;;;;;;;;;;10395630;28;20042;-80
2022/01/16 01:15:42;;;;;;;30.43;7.60;;;;;;;;;;10397389;28;20037;-80
2022/01/16 01:20:47;;;;;;;23.10;6.10;;;;;;;;;;10397479;28;20061;-80
2022/01/16 01:25:51;;;;;;;16.47;5.23;;;;;;;;;;10380871;28;20472;-79
2022/01/16 01:30:54;;;;;;;;;;;;;;;;;;10405931;28;20099;-78
2022/01/16 01:35:57;;;;;;;20.47;6.53;;;;;;;;;;10415651;28;19921;-79
2022/01/16 01:41:01;;;;;;;23.57;5.63;;;;;;;;;;10406150;28;20563;-80
2022/01/16 01:51:26;;;;;;;13.77;3.53;;;;;;;;;;10404676;28;19991;-78
2022/01/16 01:56:29;;;;;;;;;;;;;;;;;;10395482;28;20048;-78
2022/01/16 02:01:33;;;;;;;6.40;2.50;;;;;;;;;;10415664;28;19967;-79
2022/01/16 02:06:37;;;;;;;21.97;6.13;;;;;;;;;;10389154;28;20100;-79
2022/01/16 02:11:40;;;;;;;11.47;3.97;;;;;;;;;;10403436;28;20033;-79
2022/01/16 02:28:02;;;;;;;24.73;5.68;;;;;;;;;;10404139;28;20045;-79
2022/01/16 02:38:18;;;;;;;26.17;8.47;;;;;;;;;;10381563;28;20421;-79
2022/01/16 02:43:29;;;;;;;15.20;6.13;;;;;;;;;;10408289;28;20092;-78
2022/01/16 02:48:32;;;;;;;9.23;3.73;;;;;;;;;;10403810;28;20257;-80
2022/01/16 02:53:37;;;;;;;16.10;3.50;;;;;;;;;;10404486;28;20061;-78
2022/01/16 02:58:44;;;;;;;5.73;2.50;;;;;;;;;;10400735;28;20141;-78
2022/01/16 03:03:47;;;;;;;21.90;6.15;;;;;;;;;;10403807;28;20196;-79
2022/01/16 03:08:52;;;;;;;8.63;3.20;;;;;;;;;;10404213;28;20051;-80
2022/01/16 03:13:55;;;;;;;8.67;2.93;;;;;;;;;;10386387;28;20041;-78
2022/01/16 03:24:21;;;;;;;15.20;4.50;;;;;;;;;;10386079;28;20492;-79
2022/01/16 03:29:24;;;;;;;25.07;7.47;;;;;;;;;;10402539;28;20082;-80
2022/01/16 03:34:27;;;;;;;2.53;1.20;;;;;;;;;;10381842;28;20046;-79
2022/01/16 03:39:32;;;;;;;10.57;2.83;;;;;;;;;;10399983;28;20048;-79
2022/01/16 03:44:36;;;;;;;15.70;5.40;;;;;;;;;;10377786;28;20515;-80
2022/01/16 03:49:39;;;;;;;20.13;6.03;;;;;;;;;;10384580;28;20034;-78
2022/01/16 03:54:43;;;;;;;17.57;4.60;;;;;;;;;;10396908;28;20471;-79
2022/01/16 03:59:47;;;;;;;17.53;5.43;;;;;;;;;;10382758;28;20280;-79
2022/01/16 04:04:50;;;;;;;21.37;6.40;;;;;;;;;;10392506;28;20037;-79
2022/01/16 04:09:54;;;;;;;2.73;1.50;;;;;;;;;;10402644;28;20040;-78
2022/01/16 04:20:18;;;;;;;20.70;5.63;;;;;;;;;;10387273;28;20041;-77
2022/01/16 04:25:23;;;;;;;23.17;6.37;;;;;;;;;;10406059;28;20037;-77
2022/01/16 04:30:26;;;;;;;16.63;4.83;;;;;;;;;;10403631;28;20056;-78
2022/01/16 04:35:30;;;;;;;6.13;2.63;;;;;;;;;;10402050;28;20095;-79
2022/01/16 04:40:43;;;;;;;12.13;4.40;;;;;;;;;;10399262;28;20042;-80
2022/01/16 04:45:46;;;;;;;24.43;6.13;;;;;;;;;;10391755;28;20095;-80
2022/01/16 04:50:50;;;;;;;11.40;4.03;;;;;;;;;;10384437;28;20253;-80
2022/01/16 04:55:55;;;;;;;10.13;4.30;;;;;;;;;;10402943;28;20045;-79
2022/01/16 05:00:57;;;;;;;6.23;2.30;;;;;;;;;;10377744;28;20077;-80
2022/01/16 05:06:00;;;;;;;15.20;4.63;;;;;;;;;;10396917;28;20172;-80
2022/01/16 05:11:06;;;;;;;14.90;5.43;;;;;;;;;;10400462;28;20044;-80
2022/01/16 05:21:30;;;;;;;18.03;6.27;;;;;;;;;;10394864;28;20069;-79
2022/01/16 05:26:35;;;;;;;21.27;7.57;;;;;;;;;;10402167;28;20126;-79
2022/01/16 05:31:44;;;;;;;10.23;3.83;;;;;;;;;;10378288;28;20099;-78
2022/01/16 05:36:47;;;;;;;12.37;4.60;;;;;;;;;;10385493;28;20033;-78
2022/01/16 05:41:52;;;;;;;7.77;4.03;;;;;;;;;;10396246;28;20648;-78
2022/01/16 05:46:54;;;;;;;16.52;7.15;;;;;;;;;;10386156;28;20049;-79
2022/01/16 05:51:58;;;;;;;11.37;4.37;;;;;;;;;;10398984;28;20248;-77
2022/01/16 05:57:02;;;;;;;13.77;5.27;;;;;;;;;;10398343;28;20100;-79
2022/01/16 06:02:05;;;;;;;19.03;6.97;;;;;;;;;;10399970;28;20044;-79
2022/01/16 06:07:08;;;;;;;8.10;3.20;;;;;;;;;;10376201;28;20042;-80
2022/01/16 06:12:13;;;;;;;19.30;6.40;;;;;;;;;;10379675;28;20159;-77
2022/01/16 06:17:16;;;;;;;13.17;5.67;;;;;;;;;;10390331;28;20064;-77
2022/01/16 06:22:19;;;;;;;13.52;5.70;;;;;;;;;;10408528;28;20041;-79
2022/01/16 06:27:23;;;;;;;13.00;5.40;;;;;;;;;;10407145;28;20037;-80
2022/01/16 06:32:26;;;;;;;;;;;;;;;;;;10404524;28;20040;-77
2022/01/16 06:37:29;;;;;;;18.77;8.27;;;;;;;;;;10388931;28;19925;-80
2022/01/16 06:42:33;;;;;;;27.10;10.00;;;;;;;;;;10410939;28;20114;-79
2022/01/16 06:47:36;;;;;;;14.50;5.10;;;;;;;;;;10408503;28;20045;-80
2022/01/16 06:52:39;;;;;;;20.10;8.73;;;;;;;;;;10388950;28;20500;-78
2022/01/16 06:57:43;;;;;;;12.87;5.03;;;;;;;;;;10405143;28;20022;-79
2022/01/16 07:02:46;;;;;;;;;;;;;;;;;;10393074;28;20478;-78
2022/01/16 07:07:49;;;;;;;19.20;7.97;;;;;;;;;;10406247;28;20024;-78
2022/01/16 07:12:53;;;;;;;19.03;6.73;;;;;;;;;;10408910;28;20042;-76
2022/01/16 07:17:55;;;;;;;;;;;;;;;;;;10409250;28;20038;-78
2022/01/16 07:22:58;;;;;;;11.47;4.67;;;;;;;;;;10411156;28;19920;-78
2022/01/16 07:28:03;;;;;;;10.87;3.93;;;;;;;;;;10406311;28;20041;-78
2022/01/16 07:33:06;;;;;;;10.67;4.10;;;;;;;;;;10393702;28;20447;-78
2022/01/16 07:38:11;;;;;;;24.90;8.73;;;;;;;;;;10388071;28;20473;-78
2022/01/16 07:43:15;;;;;;;12.40;4.37;;;;;;;;;;10405436;28;20489;-77
2022/01/16 07:48:18;;;;;;;17.58;5.65;;;;;;;;;;10401944;28;20034;-79
2022/01/16 07:53:22;;;;;;;13.73;5.53;;;;;;;;;;10388237;28;20049;-79
2022/01/16 07:58:26;;;;;;;31.38;11.38;;;;;;;;;;10384996;28;20084;-80
2022/01/16 08:03:29;;;;;;;21.55;8.27;;;;;;;;;;10414392;28;20045;-78
2022/01/16 08:08:33;;;;;;;26.27;11.63;;;;;;;;;;10406137;28;20148;-79
2022/01/16 08:13:37;;;;;;;25.30;9.95;;;;;;;;;;10402873;28;20046;-81
2022/01/16 08:18:40;;;;;;;21.85;10.43;;;;;;;;;;10405313;28;20838;-80
2022/01/16 08:23:44;;;;;;;24.63;10.73;;;;;;;;;;10420265;28;20061;-81
2022/01/16 08:28:48;;;;;;;23.47;9.70;;;;;;;;;;10413126;28;20678;-79
2022/01/16 08:33:51;;;;;;;23.75;11.40;;;;;;;;;;10417090;28;20065;-79
2022/01/16 08:38:55;;;;;;;22.15;10.25;;;;;;;;;;10413975;28;20121;-81
2022/01/16 08:43:59;;;;;;;21.92;11.35;;;;;;;;;;10407516;28;20052;-81
2022/01/16 08:49:03;;;;;;;21.55;9.75;;;;;;;;;;10423152;28;20041;-82
2022/01/16 08:54:06;;;;;;;20.63;9.98;;;;;;;;;;10420722;28;20033;-81
2022/01/16 08:59:10;;;;;;;19.38;9.43;;;;;;;;;;10407710;28;20037;-82
2022/01/16 09:04:13;;;;;;;18.40;8.68;;;;;;;;;;10425085;28;20030;-80
2022/01/16 09:09:17;;;;;;;19.70;9.48;;;;;;;;;;10417432;28;20037;-80
2022/01/16 09:14:21;;;;;;;23.20;11.75;;;;;;;;;;10419898;28;20045;-82
2022/01/16 09:19:27;;;;;;;20.33;10.45;;;;;;;;;;10419255;28;20041;-81
2022/01/16 09:24:31;;;;;;;19.75;8.48;;;;;;;;;;10427261;28;20037;-82
2022/01/16 09:29:35;;;;;;;19.52;11.48;;;;;;;;;;10420596;28;20097;-81
2022/01/16 09:34:38;;;;;;;19.30;11.55;;;;;;;;;;10415491;28;20129;-80
2022/01/16 09:39:41;;;;;;;;;;;;;;;;;;10420455;28;20033;-81
2022/01/16 09:44:46;;;;;;;21.42;12.63;;;;;;;;;;10423074;28;19921;-79
2022/01/16 09:49:49;;;;;;;21.67;12.73;;;;;;;;;;10414288;28;20296;-81
2022/01/16 09:54:53;;;;;;;20.17;11.48;;;;;;;;;;10429050;28;20182;-82
2022/01/16 09:59:58;;;;;;;19.08;11.07;;;;;;;;;;10427079;28;20129;-82
2022/01/16 10:05:01;;;;;;;18.58;10.05;;;;;;;;;;10409861;28;20045;-83
2022/01/16 10:10:07;;;;;;;17.63;10.13;;;;;;;;;;10428265;28;20040;-81
2022/01/16 10:15:18;;;;;;;17.05;9.02;;;;;;;;;;10416283;28;20052;-81
2022/01/16 10:20:22;;;;;;;10.52;4.65;;;;;;;;;;10431416;28;20616;-82
2022/01/16 10:25:36;;;;;;;17.60;9.50;;;;;;;;;;10434251;28;20017;-82
2022/01/16 10:30:38;;;;;;;;;;;;;;;;;;10417190;28;20073;-82
2022/01/16 10:35:47;;;;;;;8.52;4.68;;;;;;;;;;10427269;28;19921;-81
2022/01/16 10:40:51;;;;;;;15.73;8.85;;;;;;;;;;10412942;28;20042;-81
2022/01/16 10:45:59;;;;;;;16.02;9.13;;;;;;;;;;10421765;28;20060;-80
2022/01/16 10:51:24;;;;;;;15.27;7.90;;;;;;;;;;10428162;28;20029;-82
2022/01/16 10:56:28;;;;;;;9.80;5.43;;;;;;;;;;10427721;28;20046;-81
2022/01/16 11:01:31;;;;;;;12.35;7.20;;;;;;;;;;10425534;28;20109;-81
2022/01/16 11:06:36;;;;;;;16.30;8.90;;;;;;;;;;10408517;28;20092;-83
2022/01/16 11:11:39;;;;;;;14.85;7.07;;;;;;;;;;10417196;28;20397;-82
2022/01/16 11:16:42;;;;;;;15.75;9.35;;;;;;;;;;10429641;28;20037;-83
2022/01/16 11:21:48;;;;;;;;;;;;;;;;;;10427966;28;20033;-82
2022/01/16 11:26:53;;;;;;;11.63;6.95;;;;;;;;;;10413269;28;19941;-83
2022/01/16 11:31:58;;;;;;;16.00;9.00;;;;;;;;;;10410854;28;20052;-82
2022/01/16 11:37:01;;;;;;;15.65;8.45;;;;;;;;;;10425604;28;20117;-82
2022/01/16 11:42:15;;;;;;;14.63;8.45;;;;;;;;;;10410488;28;20067;-82
2022/01/16 11:47:18;;;;;;;;;;;;;;;;;;10405338;28;20047;-83
2022/01/16 11:52:22;;;;;;;13.80;7.82;;;;;;;;;;10408933;28;19955;-84
2022/01/16 11:57:28;;;;;;;15.55;8.80;;;;;;;;;;10411728;28;20037;-83
2022/01/16 12:02:37;;;;;;;15.02;7.18;;;;;;;;;;10429137;28;20041;-83
2022/01/16 12:07:45;;;;;;;14.82;7.22;;;;;;;;;;10425585;28;20177;-81
2022/01/16 12:12:50;;;;;;;15.68;8.05;;;;;;;;;;10435177;28;20077;-82
2022/01/16 12:17:57;;;;;;;16.05;8.93;;;;;;;;;;10416838;28;20044;-84
2022/01/16 12:23:03;;;;;;;14.20;7.22;;;;;;;;;;10423471;28;20041;-84
2022/01/16 12:28:27;;;;;;;18.38;8.75;;;;;;;;;;10448111;22;20049;-75
2022/01/16 12:33:31;;;;;;;13.75;8.38;;;;;;;;;;10442510;28;20565;-75
2022/01/16 12:38:35;;;;;;;15.60;8.18;;;;;;;;;;10397802;28;20128;-74
2022/01/16 12:43:46;;;;;;;14.15;7.50;;;;;;;;;;10416819;22;20038;-73
2022/01/16 12:48:51;;;;;;;13.05;6.35;;;;;;;;;;10400359;28;20076;-73
2022/01/16 12:53:56;;;;;;;13.77;6.63;;;;;;;;;;10386368;28;20049;-72
2022/01/16 12:59:09;;;;;;;13.40;7.05;;;;;;;;;;10388323;28;20080;-71
2022/01/16 13:04:13;;;;;;;;;;;;;;;;;;10399500;28;20100;-69
2022/01/16 13:09:16;;;;;;;11.38;6.53;;;;;;;;;;10410631;28;19925;-73
2022/01/16 13:14:19;;;;;;;;;;;;;;;;;;10404296;28;20048;-72
2022/01/16 13:19:25;;;;;;;8.45;3.30;;;;;;;;;;10397610;28;19944;-72
2022/01/16 13:24:34;;;;;;;9.63;5.35;;;;;;;;;;10388734;28;20064;-73
2022/01/16 13:29:38;;;;;;;11.57;5.68;;;;;;;;;;10432071;28;20133;-75
2022/01/16 13:34:44;;;;;;;14.20;6.05;;;;;;;;;;10409482;28;20047;-74
2022/01/16 13:39:50;;;;;;;10.38;5.15;;;;;;;;;;10386971;28;20490;-71
2022/01/16 13:44:53;;;;;;;16.27;7.53;;;;;;;;;;10409124;28;20041;-72
2022/01/16 13:49:58;;;;;;;10.70;4.63;;;;;;;;;;10393623;28;20033;-73
2022/01/16 13:55:06;;;;;;;12.25;5.18;;;;;;;;;;10408624;28;20061;-72
2022/01/16 14:00:11;;;;;;;13.63;5.35;;;;;;;;;;10394660;28;20118;-72
2022/01/16 14:05:23;;;;;;;11.85;4.13;;;;;;;;;;10389507;28;20136;-72
2022/01/16 14:10:37;;;;;;;15.30;5.78;;;;;;;;;;10386037;28;20037;-69
2022/01/16 14:15:58;;;;;;;17.63;5.68;;;;;;;;;;10403056;28;20051;-71
2022/01/16 14:26:28;;;;;;;7.70;2.88;;;;;;;;;;10364640;28;20045;-70
2022/01/16 14:31:31;;;;;;;8.68;3.35;;;;;;;;;;10401608;28;20497;-71
2022/01/16 14:36:37;;;;;;;15.15;5.35;;;;;;;;;;10382077;28;20072;-71
2022/01/16 14:41:45;;;;;;;8.40;4.15;;;;;;;;;;10400712;28;20030;-72
2022/01/16 14:46:49;;;;;;;15.00;6.45;;;;;;;;;;10381978;28;20037;-73
2022/01/16 14:51:54;;;;;;;12.10;5.45;;;;;;;;;;10394940;28;20581;-72
2022/01/16 14:57:17;;;;;;;5.18;2.30;;;;;;;;;;10398592;28;21544;-72
2022/01/16 15:02:20;;;;;;;14.57;6.88;;;;;;;;;;10385895;28;20037;-75
2022/01/16 15:07:25;;;;;;;7.83;3.67;;;;;;;;;;10401290;28;20509;-71
2022/01/16 15:12:28;;;;;;;14.80;6.07;;;;;;;;;;10376898;28;20038;-71
2022/01/16 15:17:32;;;;;;;17.48;5.22;;;;;;;;;;10395919;28;20068;-71
2022/01/16 15:22:37;;;;;;;13.82;5.22;;;;;;;;;;10379387;28;20386;-71
2022/01/16 15:27:40;;;;;;;11.30;3.90;;;;;;;;;;10380269;28;20067;-73
2022/01/16 15:32:45;;;;;;;8.05;3.42;;;;;;;;;;10405143;28;20030;-73
2022/01/16 15:37:48;;;;;;;;;;;;;;;;;;10380663;28;20033;-70
2022/01/16 15:42:53;;;;;;;14.87;5.13;;;;;;;;;;10401380;28;20005;-70
2022/01/16 15:47:57;;;;;;;17.50;6.13;;;;;;;;;;10376727;28;20052;-73
2022/01/16 15:53:00;;;;;;;10.93;5.25;;;;;;;;;;10400226;28;20039;-72
2022/01/16 15:58:05;;;;;;;11.95;5.57;;;;;;;;;;10397984;28;20470;-73
2022/01/16 16:03:12;;;;;;;14.67;5.47;;;;;;;;;;10390631;28;20034;-71
2022/01/16 16:08:15;;;;;;;13.73;4.53;;;;;;;;;;10384407;28;20033;-72
2022/01/16 16:13:20;;;;;;;15.90;6.37;;;;;;;;;;10384674;28;20052;-72
2022/01/16 16:18:23;;;;;;;20.27;7.30;;;;;;;;;;10399243;28;20439;-72
2022/01/16 16:23:27;;;;;;;17.23;6.37;;;;;;;;;;10385110;28;20060;-73
2022/01/16 16:28:31;;;;;;;19.27;6.90;;;;;;;;;;10396443;28;20101;-72
2022/01/16 16:33:36;;;;;;;14.07;5.93;;;;;;;;;;10384734;28;20045;-71
2022/01/16 16:38:40;;;;;;;13.10;4.60;;;;;;;;;;10385562;28;20064;-72
2022/01/16 16:43:44;;;;;;;13.13;5.80;;;;;;;;;;10402679;28;20109;-74
2022/01/16 16:48:48;;;;;;;19.47;8.07;;;;;;;;;;10395592;28;20037;-73
2022/01/16 16:53:51;;;;;;;26.27;8.50;;;;;;;;;;10384780;28;20041;-71
2022/01/16 16:58:59;;;;;;;19.87;7.70;;;;;;;;;;10385121;28;20037;-73
2022/01/16 17:04:03;;;;;;;14.67;4.93;;;;;;;;;;10402034;28;20116;-71
2022/01/16 17:09:07;;;;;;;8.55;3.95;;;;;;;;;;10401580;28;20037;-74
2022/01/16 17:14:12;;;;;;;8.73;3.40;;;;;;;;;;10384566;28;20386;-74
2022/01/16 17:19:33;;;;;;;6.47;3.33;;;;;;;;;;10401483;28;20037;-74
2022/01/16 17:24:38;;;;;;;8.70;3.40;;;;;;;;;;10404363;28;20052;-72
2022/01/16 17:29:44;;;;;;;5.07;2.10;;;;;;;;;;10400104;28;20155;-73
2022/01/16 17:34:47;;;;;;;20.47;7.40;;;;;;;;;;10386134;28;20119;-73
2022/01/16 17:39:51;;;;;;;10.85;4.10;;;;;;;;;;10383247;28;20071;-73
2022/01/16 17:44:56;;;;;;;18.25;5.78;;;;;;;;;;10384955;28;20048;-72
2022/01/16 17:50:00;;;;;;;9.47;4.90;;;;;;;;;;10376063;28;20061;-72
2022/01/16 17:55:03;;;;;;;7.28;2.88;;;;;;;;;;10390443;28;20141;-72
2022/01/16 18:00:09;;;;;;;10.83;5.10;;;;;;;;;;10363192;28;20041;-74
2022/01/16 18:05:13;;;;;;;11.87;4.53;;;;;;;;;;10396580;28;20030;-71
2022/01/16 18:10:18;;;;;;;24.05;9.23;;;;;;;;;;10380770;28;20033;-70
2022/01/16 18:15:22;;;;;;;12.67;4.33;;;;;;;;;;10388606;28;20064;-73
2022/01/16 18:20:26;;;;;;;16.40;8.33;;;;;;;;;;10388616;28;20473;-72
2022/01/16 18:25:29;;;;;;;9.60;5.05;;;;;;;;;;10406313;28;20502;-72
2022/01/16 18:30:35;;;;;;;16.07;5.70;;;;;;;;;;10428906;28;20037;-73
2022/01/16 18:35:38;;;;;;;14.47;4.73;;;;;;;;;;10391788;28;20292;-73
2022/01/16 18:40:42;;;;;;;18.83;8.20;;;;;;;;;;10412438;28;20057;-73
2022/01/16 18:45:51;;;;;;;12.77;4.60;;;;;;;;;;10420853;22;20054;-79
2022/01/16 18:50:55;;;;;;;26.47;9.33;;;;;;;;;;10417922;28;20064;-87
2022/01/16 18:55:59;;;;;;;;;;;;;;;;;;10404886;28;20072;-83
2022/01/16 19:01:04;;;;;;;13.97;4.43;;;;;;;;;;10419785;28;19939;-81
2022/01/16 19:06:09;;;;;;;22.17;4.83;;;;;;;;;;10408695;28;20078;-84
2022/01/16 19:11:12;;;;;;;9.70;4.80;;;;;;;;;;10406166;28;20044;-83
2022/01/16 19:16:18;;;;;;;9.30;5.17;;;;;;;;;;10419416;28;20816;-83
2022/01/16 19:21:21;;;;;;;21.60;8.63;;;;;;;;;;10419035;28;20037;-82
2022/01/16 19:26:25;;;;;;;22.73;6.35;;;;;;;;;;10399476;28;20132;-83
2022/01/16 19:31:30;;;;;;;8.87;2.87;;;;;;;;;;10410793;28;20041;-82
2022/01/16 19:36:34;;;;;;;16.10;6.23;;;;;;;;;;10410654;28;20551;-84
2022/01/16 19:41:44;;;;;;;29.47;12.03;;;;;;;;;;10406916;28;20030;-81
2022/01/16 19:46:49;;;;;;;24.83;10.93;;;;;;;;;;10407490;28;20064;-83
2022/01/16 19:51:55;;;;;;;17.13;7.13;;;;;;;;;;10414959;28;20052;-85
2022/01/16 19:56:58;;;;;;;17.90;6.83;;;;;;;;;;10430213;28;20029;-83
2022/01/16 20:02:11;;;;;;;10.23;3.93;;;;;;;;;;10456662;28;20049;-82
2022/01/16 20:07:16;;;;;;;20.13;7.73;;;;;;;;;;10435133;28;20068;-84
2022/01/16 20:12:19;;;;;;;;;;;;;;;;;;10415620;28;20308;-83
2022/01/16 20:17:24;;;;;;;10.43;4.80;;;;;;;;;;10417247;28;19916;-82
2022/01/16 20:22:28;;;;;;;16.63;6.90;;;;;;;;;;10421581;28;20078;-85
2022/01/16 20:27:31;;;;;;;21.33;9.57;;;;;;;;;;10434688;28;20238;-81
2022/01/16 20:32:35;;;;;;;22.43;8.57;;;;;;;;;;10430638;28;20029;-83
2022/01/16 20:37:42;;;;;;;17.27;5.77;;;;;;;;;;10398599;28;20116;-83
2022/01/16 20:42:46;;;;;;;17.03;6.73;;;;;;;;;;10390709;28;20179;-81
2022/01/16 20:47:51;;;;;;;15.65;4.95;;;;;;;;;;10392565;28;20107;-80
2022/01/16 20:52:54;;;;;;;25.63;9.07;;;;;;;;;;10405907;28;20103;-80
2022/01/16 20:58:01;;;;;;;24.50;9.07;;;;;;;;;;10407555;28;20103;-83
2022/01/16 21:03:06;;;;;;;11.13;5.20;;;;;;;;;;10412527;28;20034;-81
2022/01/16 21:08:16;;;;;;;26.50;8.73;;;;;;;;;;10372633;28;20104;-82
2022/01/16 21:13:19;;;;;;;14.43;4.90;;;;;;;;;;10408261;28;20557;-79
2022/01/16 21:18:24;;;;;;;15.57;4.90;;;;;;;;;;10408804;28;20033;-77
2022/01/16 21:23:29;;;;;;;10.17;4.07;;;;;;;;;;10389229;28;20042;-78
2022/01/16 21:28:32;;;;;;;16.37;5.90;;;;;;;;;;10410018;28;20171;-77
2022/01/16 21:33:37;;;;;;;24.50;9.65;;;;;;;;;;10396168;28;20152;-79
2022/01/16 21:38:40;;;;;;;15.40;5.27;;;;;;;;;;10392857;28;20340;-78
2022/01/16 21:43:43;;;;;;;10.07;4.60;;;;;;;;;;10412375;28;20029;-79
2022/01/16 21:48:48;;;;;;;13.50;5.20;;;;;;;;;;10405715;28;20044;-78
2022/01/16 21:53:51;;;;;;;22.60;8.40;;;;;;;;;;10411325;28;20070;-78
2022/01/16 21:58:55;;;;;;;11.45;4.82;;;;;;;;;;10400358;28;20033;-80
2022/01/16 22:04:00;;;;;;;8.93;3.73;;;;;;;;;;10412719;28;20644;-79
2022/01/16 22:09:04;;;;;;;20.13;6.30;;;;;;;;;;10410717;28;20103;-78
2022/01/16 22:14:07;;;;;;;;;;;;;;;;;;10394139;28;20037;-77
2022/01/16 22:19:12;;;;;;;22.93;8.17;;;;;;;;;;10389147;28;19931;-78
2022/01/16 22:24:16;;;;;;;11.30;3.77;;;;;;;;;;10391825;28;20089;-78
2022/01/16 22:29:19;;;;;;;16.97;6.00;;;;;;;;;;10404577;28;20037;-80
2022/01/16 22:34:23;;;;;;;9.03;3.37;;;;;;;;;;10410821;28;20038;-79
2022/01/16 22:39:26;;;;;;;20.53;7.27;;;;;;;;;;10383806;28;20124;-78
2022/01/16 22:44:30;;;;;;;7.38;3.42;;;;;;;;;;10416751;28;20137;-78
2022/01/16 22:49:35;;;;;;;14.23;5.40;;;;;;;;;;10376754;28;20140;-76
2022/01/16 22:54:39;;;;;;;6.33;3.27;;;;;;;;;;10387903;28;20041;-76
2022/01/16 22:59:42;;;;;;;21.52;7.00;;;;;;;;;;10406170;28;20084;-78
2022/01/16 23:04:46;;;;;;;21.37;7.80;;;;;;;;;;10384059;28;20037;-79
2022/01/16 23:09:50;;;;;;;12.10;5.00;;;;;;;;;;10414952;28;20037;-77
2022/01/16 23:14:53;;;;;;;24.15;8.82;;;;;;;;;;10385037;28;20041;-78
2022/01/16 23:19:58;;;;;;;12.43;4.65;;;;;;;;;;10377695;28;20037;-75
2022/01/16 23:25:02;;;;;;;12.40;5.17;;;;;;;;;;10399448;28;20048;-77
2022/01/16 23:30:06;;;;;;;24.45;6.25;;;;;;;;;;10399207;28;20116;-77
2022/01/16 23:35:13;;;;;;;17.63;6.70;;;;;;;;;;10386594;28;20042;-77
2022/01/16 23:40:18;;;;;;;17.33;5.87;;;;;;;;;;10386314;28;20087;-77
2022/01/16 23:45:26;;;;;;;13.07;5.73;;;;;;;;;;10380962;28;1308091;-77
2022/01/16 23:50:31;;;;;;;18.37;7.07;;;;;;;;;;10379916;28;20042;-79
2022/01/16 23:55:35;;;;;;;19.10;5.83;;;;;;;;;;10382471;28;20095;-78
